Time;durP1;ratioP1;P1;durP2;ratioP2;P2;SDS_P1;SDS_P2;PMS_P1;PMS_P2;Temp;Humidity;BMP_temperature;BMP_pressure;BME280_temperature;BME280_humidity;BME280_pressure;Samples;Min_cycle;Max_cycle;Signal;HPM_P1;HPM_P2
2022/10/31 00:00:52;;;;;;;11.00;6.00;;;;;;;13.53;82.15;100434.19;4969444;28;20050;-87
2022/10/31 00:03:19;;;;;;;13.15;5.60;;;;;;;13.50;82.25;100431.81;4967336;28;20494;-87
2022/10/31 00:05:47;;;;;;;15.68;5.72;;;;;;;13.50;82.26;100429.13;4969532;28;20038;-88
2022/10/31 00:08:15;;;;;;;13.95;5.63;;;;;;;13.53;82.10;100433.34;4953268;28;20038;-87
2022/10/31 00:10:43;;;;;;;12.77;5.78;;;;;;;13.43;82.06;100428.88;4969968;28;20049;-87
2022/10/31 00:13:10;;;;;;;11.00;5.75;;;;;;;13.43;82.14;100430.66;4967673;28;20100;-87
2022/10/31 00:15:38;;;;;;;16.80;6.93;;;;;;;13.49;81.95;100431.97;4970850;28;20125;-87
2022/10/31 00:18:06;;;;;;;15.60;5.95;;;;;;;13.50;81.85;100428.31;4985512;28;20096;-87
2022/10/31 00:20:33;;;;;;;10.45;5.50;;;;;;;13.50;82.21;100426.47;4949740;28;20465;-87
2022/10/31 00:23:01;;;;;;;13.38;5.75;;;;;;;13.46;82.16;100423.25;4966198;28;20065;-88
2022/10/31 00:25:29;;;;;;;12.95;5.60;;;;;;;13.37;82.06;100428.56;4984798;28;20065;-87
2022/10/31 00:27:55;;;;;;;15.88;5.22;;;;;;;13.34;82.19;100419.03;4970487;28;20085;-87
2022/10/31 00:30:23;;;;;;;17.17;6.32;;;;;;;13.34;82.15;100415.53;4952652;28;20467;-87
2022/10/31 00:32:50;;;;;;;17.48;5.72;;;;;;;13.39;81.46;100421.28;4981132;28;20076;-87
2022/10/31 00:35:17;;;;;;;10.63;5.00;;;;;;;13.44;80.68;100427.88;4973083;28;20046;-87
2022/10/31 00:37:44;;;;;;;15.77;5.05;;;;;;;13.37;80.96;100426.75;4974064;28;20042;-86
2022/10/31 00:40:11;;;;;;;11.27;5.10;;;;;;;13.35;80.78;100423.38;4967217;28;20512;-87
2022/10/31 00:42:41;;;;;;;15.30;5.03;;;;;;;13.25;80.39;100427.81;4958051;28;20054;-87
2022/10/31 00:45:09;;;;;;;13.30;6.32;;;;;;;13.32;80.78;100425.47;4965312;28;20071;-87
2022/10/31 00:47:36;;;;;;;12.43;5.00;;;;;;;13.21;80.98;100427.25;4938944;28;20046;-87
2022/10/31 00:50:05;;;;;;;15.68;5.28;;;;;;;13.24;80.93;100423.47;4988850;28;20073;-87
2022/10/31 00:52:32;;;;;;;15.32;5.85;;;;;;;13.23;81.10;100424.47;4943936;28;20126;-87
2022/10/31 00:54:59;;;;;;;12.20;5.47;;;;;;;13.16;81.24;100420.66;4969169;28;20074;-87
2022/10/31 00:57:25;;;;;;;13.82;5.20;;;;;;;13.15;81.26;100424.28;4972152;28;20410;-87
2022/10/31 00:59:52;;;;;;;8.68;4.95;;;;;;;13.12;81.10;100414.75;4972716;28;20043;-87
2022/10/31 01:02:19;;;;;;;9.52;5.57;;;;;;;13.08;81.23;100421.34;4989424;28;20046;-87
2022/10/31 01:04:46;;;;;;;13.68;5.20;;;;;;;13.05;81.21;100418.94;4970730;28;20047;-87
2022/10/31 01:07:13;;;;;;;12.30;5.22;;;;;;;13.03;81.51;100420.91;4971130;28;20042;-87
2022/10/31 01:09:40;;;;;;;15.82;5.38;;;;;;;12.98;81.58;100421.31;4973946;28;20046;-87
2022/10/31 01:12:08;;;;;;;14.32;5.35;;;;;;;12.98;81.51;100413.31;4988287;28;20046;-87
2022/10/31 01:14:35;;;;;;;9.88;5.03;;;;;;;13.00;81.34;100418.50;4954725;28;20125;-87
2022/10/31 01:17:01;;;;;;;10.55;4.95;;;;;;;13.00;81.33;100419.38;4975275;28;20073;-88
2022/10/31 01:19:28;;;;;;;18.08;5.68;;;;;;;12.99;81.49;100416.84;4976965;28;20046;-88
2022/10/31 01:21:56;;;;;;;14.27;5.50;;;;;;;13.01;81.05;100417.53;4976309;28;20055;-87
2022/10/31 01:24:27;;;;;;;15.02;5.70;;;;;;;12.99;81.31;100417.66;4955542;28;20144;-88
2022/10/31 01:26:54;;;;;;;12.82;6.30;;;;;;;12.96;81.52;100417.13;4955796;28;20077;-88
2022/10/31 01:29:21;;;;;;;14.63;5.07;;;;;;;12.93;81.46;100418.22;4975202;28;20154;-88
2022/10/31 01:31:48;;;;;;;10.70;5.43;;;;;;;12.89;81.50;100423.97;4990602;28;20520;-87
2022/10/31 01:34:16;;;;;;;15.98;5.35;;;;;;;12.89;81.31;100422.13;4974850;28;20050;-87
2022/10/31 01:36:44;;;;;;;11.43;6.07;;;;;;;12.86;81.34;100429.56;4976680;28;20045;-87
2022/10/31 01:39:13;;;;;;;12.65;6.10;;;;;;;12.85;81.59;100425.19;4967311;28;20039;-87
2022/10/31 01:41:46;;;;;;;15.60;5.95;;;;;;;12.81;80.99;100428.16;4986243;28;20054;-88
2022/10/31 01:44:13;;;;;;;10.70;5.20;;;;;;;12.89;81.30;100423.97;4970914;28;20501;-87
2022/10/31 01:46:40;;;;;;;11.20;5.53;;;;;;;12.90;81.42;100431.84;4974676;28;20038;-87
2022/10/31 01:49:13;;;;;;;8.88;5.30;;;;;;;12.90;80.71;100426.50;4968375;28;20045;-87
2022/10/31 01:51:42;;;;;;;;;;;;;;;12.56;82.18;100421.47;4954790;28;20094;-87
2022/10/31 01:54:12;;;;;;;11.50;5.28;;;;;;;12.87;81.05;100417.91;4949868;28;19921;-87
2022/10/31 01:56:41;;;;;;;7.35;4.68;;;;;;;12.90;81.07;100415.84;4937325;28;20109;-87
2022/10/31 01:59:09;;;;;;;11.63;5.45;;;;;;;12.91;80.87;100416.69;4934497;28;20502;-87
2022/10/31 02:01:37;;;;;;;10.82;4.85;;;;;;;12.96;80.84;100419.78;4952550;28;20477;-87
2022/10/31 02:04:05;;;;;;;11.30;5.03;;;;;;;12.94;80.29;100417.25;4974187;28;20045;-87
2022/10/31 02:06:46;;;;;;;13.20;5.40;;;;;;;12.89;79.67;100427.47;4956497;28;20054;-86
2022/10/31 02:09:14;;;;;;;12.18;5.03;;;;;;;12.98;79.83;100424.00;4923347;28;20038;-87
2022/10/31 02:11:41;;;;;;;10.43;4.85;;;;;;;12.96;79.69;100430.44;4972091;28;20053;-87
2022/10/31 02:14:10;;;;;;;7.22;3.92;;;;;;;12.88;79.65;100430.28;4968149;28;20100;-87
2022/10/31 02:16:37;;;;;;;11.68;4.40;;;;;;;12.87;79.31;100431.25;4972231;28;20046;-88
2022/10/31 02:19:08;;;;;;;10.95;4.55;;;;;;;12.75;78.64;100430.53;4975418;28;21690;-87
2022/10/31 02:21:39;;;;;;;9.60;5.07;;;;;;;12.66;78.50;100434.81;4951121;28;21583;-88
2022/10/31 02:24:09;;;;;;;13.05;5.18;;;;;;;12.77;79.00;100426.75;4985399;28;20105;-87
2022/10/31 02:26:49;;;;;;;13.02;4.65;;;;;;;12.57;79.05;100433.00;4938978;28;20514;-87
2022/10/31 02:29:17;;;;;;;8.98;4.15;;;;;;;12.65;79.84;100432.31;4898296;28;20047;-87
2022/10/31 02:32:06;;;;;;;9.40;4.45;;;;;;;12.56;79.87;100424.13;4952877;28;20132;-87
2022/10/31 02:34:42;;;;;;;14.35;4.72;;;;;;;12.56;79.63;100424.13;4921393;28;20042;-87
2022/10/31 02:37:37;;;;;;;13.75;5.05;;;;;;;12.49;79.61;100424.78;4938154;28;20413;-87
2022/10/31 02:40:25;;;;;;;9.15;4.30;;;;;;;12.48;79.67;100421.28;4920299;28;20053;-86
2022/10/31 02:43:15;;;;;;;11.02;5.07;;;;;;;12.47;79.64;100424.94;4896640;28;20050;-86
2022/10/31 02:45:47;;;;;;;9.63;5.03;;;;;;;12.45;79.69;100426.06;4902597;28;20054;-87
2022/10/31 02:48:27;;;;;;;13.43;4.53;;;;;;;12.42;79.83;100429.00;4965413;28;20130;-87
2022/10/31 02:50:57;;;;;;;16.10;4.50;;;;;;;12.45;80.30;100423.38;4961654;28;20509;-87
2022/10/31 02:53:24;;;;;;;9.15;4.40;;;;;;;12.47;80.11;100424.94;4918973;28;20042;-87
2022/10/31 02:55:58;;;;;;;11.38;4.35;;;;;;;12.41;80.02;100428.13;4936736;28;20058;-86
2022/10/31 02:58:29;;;;;;;11.25;4.55;;;;;;;12.45;80.20;100423.38;4979158;28;20073;-86
2022/10/31 03:01:16;;;;;;;9.02;4.60;;;;;;;12.41;79.95;100429.94;4955764;28;20410;-87
2022/10/31 03:04:05;;;;;;;11.13;4.50;;;;;;;12.26;79.75;100432.13;4970468;28;20425;-86
2022/10/31 03:06:53;;;;;;;14.15;4.60;;;;;;;12.21;80.73;100429.00;4934667;28;20503;-86
2022/10/31 03:09:56;;;;;;;12.90;4.13;;;;;;;12.30;80.39;100428.22;4951521;28;20046;-88
2022/10/31 03:12:27;;;;;;;8.55;4.38;;;;;;;12.29;80.74;100427.38;4912833;28;20425;-87
2022/10/31 03:15:19;;;;;;;8.52;4.55;;;;;;;12.22;80.78;100430.72;4970885;28;20485;-88
2022/10/31 03:17:57;;;;;;;14.20;4.30;;;;;;;12.29;80.57;100422.06;4933878;28;20047;-88
2022/10/31 03:20:30;;;;;;;10.98;4.47;;;;;;;12.34;80.66;100429.66;4933732;28;20050;-88
2022/10/31 03:22:57;;;;;;;14.88;4.70;;;;;;;12.38;80.48;100428.41;4937014;28;20058;-87
2022/10/31 03:25:24;;;;;;;9.27;4.15;;;;;;;12.32;80.39;100429.78;4952570;28;20093;-87
2022/10/31 03:27:56;;;;;;;8.60;4.30;;;;;;;12.32;80.48;100424.44;4915649;28;20048;-87
2022/10/31 03:30:23;;;;;;;10.77;4.20;;;;;;;12.32;80.44;100429.78;4949154;28;20384;-87
2022/10/31 03:32:57;;;;;;;9.95;4.38;;;;;;;12.27;80.34;100432.00;4963158;28;20069;-87
2022/10/31 03:35:27;;;;;;;13.45;4.60;;;;;;;12.28;80.01;100419.50;4922692;28;20047;-87
2022/10/31 03:37:55;;;;;;;13.75;4.15;;;;;;;12.27;80.34;100431.16;4950294;28;20054;-86
2022/10/31 03:40:26;;;;;;;13.25;4.43;;;;;;;12.20;79.52;100438.81;4959928;28;20380;-87
2022/10/31 03:42:58;;;;;;;9.30;4.40;;;;;;;12.21;79.70;100429.84;4934253;28;20125;-87
2022/10/31 03:45:28;;;;;;;8.95;4.50;;;;;;;12.19;79.86;100433.59;4924821;28;20169;-87
2022/10/31 03:47:56;;;;;;;13.77;4.68;;;;;;;12.37;79.62;100432.88;4951599;28;20115;-87
2022/10/31 03:50:28;;;;;;;12.07;4.85;;;;;;;12.23;80.14;100432.38;4936277;28;20046;-87
2022/10/31 03:53:04;;;;;;;12.00;3.97;;;;;;;12.21;80.34;100431.66;4936275;28;20065;-87
2022/10/31 03:55:48;;;;;;;8.50;4.63;;;;;;;12.20;80.20;100428.16;4969871;28;20053;-87
2022/10/31 03:58:22;;;;;;;10.95;4.07;;;;;;;12.22;80.32;100431.53;4929592;28;20502;-87
2022/10/31 04:00:51;;;;;;;12.52;4.60;;;;;;;12.35;79.66;100434.84;4951935;28;20517;-87
2022/10/31 04:03:28;;;;;;;8.18;4.32;;;;;;;12.30;79.32;100425.56;4935585;28;20123;-87
2022/10/31 04:06:01;;;;;;;10.43;5.20;;;;;;;12.32;79.53;100428.94;4916256;28;20074;-88
2022/10/31 04:08:30;;;;;;;15.25;4.53;;;;;;;12.33;79.09;100426.13;4917340;28;20050;-87
2022/10/31 04:10:59;;;;;;;6.90;3.95;;;;;;;12.20;79.46;100422.84;4919699;28;20051;-87
2022/10/31 04:13:28;;;;;;;14.00;4.20;;;;;;;12.16;79.98;100422.28;4952195;28;20082;-87
2022/10/31 04:16:01;;;;;;;8.95;3.88;;;;;;;12.11;80.41;100423.63;4952072;28;20125;-87
2022/10/31 04:18:28;;;;;;;13.02;4.85;;;;;;;12.10;80.44;100427.25;4952084;28;20376;-87
2022/10/31 04:21:04;;;;;;;7.95;4.25;;;;;;;11.94;79.90;100417.09;4940328;28;20074;-87
2022/10/31 04:23:31;;;;;;;11.85;4.38;;;;;;;12.03;80.17;100410.97;4942044;28;20053;-87
2022/10/31 04:25:59;;;;;;;12.35;4.30;;;;;;;11.94;79.76;100412.59;4921409;28;20051;-87
2022/10/31 04:28:26;;;;;;;11.88;4.03;;;;;;;11.98;79.97;100415.84;4930890;28;20162;-87
2022/10/31 04:30:53;;;;;;;7.47;4.63;;;;;;;11.98;80.06;100415.84;4928809;28;20086;-88
2022/10/31 04:33:21;;;;;;;10.05;4.20;;;;;;;11.95;80.42;100413.44;4929310;29;20527;-87
2022/10/31 04:35:49;;;;;;;9.88;4.47;;;;;;;11.94;80.31;100403.78;4922041;28;20158;-87
2022/10/31 04:38:17;;;;;;;5.95;3.80;;;;;;;11.98;80.12;100409.66;4894473;29;20122;-86
2022/10/31 04:40:45;;;;;;;8.93;4.70;;;;;;;11.98;79.72;100415.84;4930087;28;20054;-87
2022/10/31 04:43:15;;;;;;;14.35;5.00;;;;;;;11.97;80.01;100413.31;4929607;28;20058;-88
2022/10/31 04:45:43;;;;;;;10.52;5.60;;;;;;;11.93;79.83;100408.25;4931418;28;20051;-87
2022/10/31 04:48:12;;;;;;;15.25;5.07;;;;;;;12.00;79.43;100416.56;4914949;29;20047;-87
2022/10/31 04:50:41;;;;;;;11.13;4.97;;;;;;;11.93;79.83;100405.59;4899841;28;20447;-87
2022/10/31 04:53:08;;;;;;;11.10;4.22;;;;;;;11.92;80.00;100406.56;4912352;28;20043;-87
2022/10/31 04:55:45;;;;;;;7.90;3.90;;;;;;;11.91;80.33;100402.22;4967914;28;20112;-88
2022/10/31 04:58:21;;;;;;;7.00;3.78;;;;;;;11.96;80.54;100399.19;4942726;28;20402;-87
2022/10/31 05:00:51;;;;;;;9.48;4.32;;;;;;;11.89;80.05;100396.19;4957669;28;20105;-87
2022/10/31 05:03:19;;;;;;;9.43;3.65;;;;;;;11.87;80.66;100389.31;4969947;28;20561;-88
2022/10/31 05:05:46;;;;;;;17.15;4.80;;;;;;;11.87;80.40;100394.63;4969505;28;20045;-87
2022/10/31 05:08:13;;;;;;;10.75;4.00;;;;;;;11.85;80.41;100394.72;4954796;28;20100;-87
2022/10/31 05:10:40;;;;;;;8.07;3.95;;;;;;;11.86;80.32;100390.25;4961384;28;20118;-87
2022/10/31 05:13:08;;;;;;;11.85;4.65;;;;;;;11.85;80.35;100396.53;4937322;28;20068;-87
2022/10/31 05:16:00;;;;;;;9.18;3.97;;;;;;;11.77;80.74;100391.03;4932199;28;20051;-87
2022/10/31 05:18:46;;;;;;;9.32;4.20;;;;;;;11.80;80.55;100402.25;4942575;28;20045;-87
2022/10/31 05:21:31;;;;;;;7.95;3.70;;;;;;;11.84;80.36;100395.69;4949780;28;20424;-86
2022/10/31 05:24:00;;;;;;;14.05;3.65;;;;;;;11.83;80.44;100391.38;4932567;28;20046;-87
2022/10/31 05:26:28;;;;;;;14.07;4.20;;;;;;;11.90;79.98;100383.72;4917957;28;20073;-87
2022/10/31 05:28:55;;;;;;;13.35;4.05;;;;;;;11.94;79.70;100386.00;4963844;28;20102;-87
2022/10/31 05:31:22;;;;;;;11.40;3.50;;;;;;;11.89;79.25;100387.38;4967863;28;20502;-87
2022/10/31 05:33:51;;;;;;;7.70;3.88;;;;;;;11.87;78.82;100379.50;4956976;28;20038;-87
2022/10/31 05:36:37;;;;;;;8.30;3.58;;;;;;;11.82;78.46;100378.19;4963000;28;20057;-83
2022/10/31 05:39:19;;;;;;;7.00;3.60;;;;;;;11.80;78.15;100372.13;4950377;28;20391;-83
2022/10/31 05:41:48;;;;;;;8.02;3.80;;;;;;;11.81;78.29;100380.00;4970552;28;20053;-83
2022/10/31 05:44:21;;;;;;;10.63;4.60;;;;;;;11.80;78.15;100372.97;4983592;28;20391;-83
2022/10/31 05:47:23;;;;;;;9.07;3.85;;;;;;;11.62;78.96;100382.50;4898037;28;20372;-83
2022/10/31 05:49:55;;;;;;;8.38;4.07;;;;;;;11.59;79.42;100380.97;4972124;28;20407;-83
2022/10/31 05:52:34;;;;;;;11.45;4.00;;;;;;;11.60;79.23;100384.47;4966071;28;20050;-83
2022/10/31 05:55:09;;;;;;;9.95;3.88;;;;;;;11.56;79.84;100383.03;4945380;28;20126;-83
2022/10/31 05:57:40;;;;;;;9.93;4.13;;;;;;;11.60;80.20;100387.13;4954404;28;20141;-83
2022/10/31 06:00:08;;;;;;;12.07;4.53;;;;;;;11.67;80.34;100385.63;4956824;28;20057;-83
2022/10/31 06:02:46;;;;;;;8.73;4.07;;;;;;;11.64;81.23;100380.56;4972234;28;20041;-83
2022/10/31 06:05:36;;;;;;;10.25;4.45;;;;;;;11.66;81.30;100384.78;4979439;28;20122;-83
2022/10/31 06:08:03;;;;;;;11.52;4.30;;;;;;;11.70;81.17;100380.03;4951552;28;20062;-83
2022/10/31 06:10:30;;;;;;;10.70;4.18;;;;;;;11.67;81.38;100391.78;4972821;28;20066;-83
2022/10/31 06:12:57;;;;;;;9.25;4.18;;;;;;;11.71;81.36;100385.25;4960157;28;20046;-83
2022/10/31 06:15:42;;;;;;;10.77;4.18;;;;;;;11.67;81.62;100385.63;4957327;28;20397;-83
2022/10/31 06:18:10;;;;;;;8.25;4.65;;;;;;;11.71;81.61;100382.59;4985703;28;20046;-83
2022/10/31 06:20:50;;;;;;;14.15;4.88;;;;;;;11.72;81.32;100383.44;4987376;28;20050;-83
2022/10/31 06:23:16;;;;;;;7.82;3.55;;;;;;;11.69;81.63;100386.34;4949466;28;21707;-83
2022/10/31 06:25:50;;;;;;;14.32;3.78;;;;;;;11.71;81.04;100387.06;4948973;28;20074;-83
2022/10/31 06:28:17;;;;;;;9.07;4.22;;;;;;;11.71;81.62;100379.94;4986528;28;20097;-83
2022/10/31 06:30:51;;;;;;;13.00;5.40;;;;;;;11.74;81.40;100379.66;4958036;28;20112;-83
2022/10/31 06:33:18;;;;;;;7.07;3.95;;;;;;;11.70;81.49;100378.25;4971238;28;20112;-83
2022/10/31 06:35:54;;;;;;;10.05;4.15;;;;;;;11.78;81.24;100382.06;4989141;28;20054;-83
2022/10/31 06:38:21;;;;;;;12.05;4.72;;;;;;;11.73;81.53;100382.47;4974623;28;20125;-83
2022/10/31 06:40:48;;;;;;;7.85;4.13;;;;;;;11.74;81.61;100378.81;4951799;28;20050;-83
2022/10/31 06:43:20;;;;;;;11.77;4.85;;;;;;;11.77;81.58;100383.03;4970275;28;20129;-83
2022/10/31 06:45:47;;;;;;;14.85;4.65;;;;;;;11.74;82.05;100386.81;4955373;28;20047;-83
2022/10/31 06:48:32;;;;;;;7.28;4.25;;;;;;;11.77;82.06;100389.19;4951815;28;20205;-83
2022/10/31 06:51:20;;;;;;;9.18;4.43;;;;;;;11.79;82.25;100391.75;4972817;28;20047;-83
2022/10/31 06:53:49;;;;;;;11.27;4.95;;;;;;;11.76;82.28;100389.34;4987203;28;20050;-83
2022/10/31 06:56:17;;;;;;;15.00;5.45;;;;;;;11.81;82.11;100390.66;4952645;28;20165;-83
2022/10/31 06:58:51;;;;;;;9.18;5.45;;;;;;;11.76;82.60;100395.50;4958868;28;20042;-83
2022/10/31 07:01:28;;;;;;;10.88;5.38;;;;;;;11.80;82.52;100391.59;4939291;28;20047;-83
2022/10/31 07:03:56;;;;;;;10.68;5.32;;;;;;;11.86;82.83;100395.56;4954044;28;20118;-83
2022/10/31 07:06:23;;;;;;;14.68;5.78;;;;;;;11.80;83.19;100396.91;4952320;28;20081;-83
2022/10/31 07:08:50;;;;;;;10.23;5.72;;;;;;;11.78;83.56;100396.22;4949121;28;20043;-83
2022/10/31 07:11:17;;;;;;;9.25;5.38;;;;;;;11.79;83.76;100405.88;4949718;28;20039;-83
2022/10/31 07:13:44;;;;;;;10.18;5.57;;;;;;;11.90;83.16;100397.84;4933791;28;20060;-83
2022/10/31 07:16:12;;;;;;;7.40;4.75;;;;;;;11.87;83.39;100397.28;4948325;28;20050;-83
2022/10/31 07:18:40;;;;;;;8.77;4.65;;;;;;;11.89;83.62;100401.50;4967573;28;20039;-83
2022/10/31 07:21:07;;;;;;;15.90;5.10;;;;;;;11.84;83.76;100401.03;4986778;28;20045;-83
2022/10/31 07:23:34;;;;;;;10.40;5.47;;;;;;;11.88;83.58;100393.63;4968512;28;20066;-83
2022/10/31 07:26:27;;;;;;;8.00;5.00;;;;;;;11.85;83.18;100399.19;4945418;28;20118;-83
2022/10/31 07:28:54;;;;;;;9.82;5.68;;;;;;;11.85;83.57;100397.38;4963594;28;20469;-83
2022/10/31 07:31:24;;;;;;;10.05;5.35;;;;;;;11.82;83.86;100402.13;4954301;28;20046;-83
2022/10/31 07:33:54;;;;;;;27.80;6.10;;;;;;;11.83;84.05;100393.16;4979214;28;20497;-83
2022/10/31 07:36:27;;;;;;;10.25;5.60;;;;;;;11.79;84.79;100399.72;4970326;28;20038;-84
2022/10/31 07:38:58;;;;;;;15.65;5.53;;;;;;;11.81;84.84;100395.97;4989637;28;20042;-83
2022/10/31 07:41:25;;;;;;;8.68;5.68;;;;;;;11.81;84.96;100395.97;4970355;28;20042;-83
2022/10/31 07:43:53;;;;;;;21.65;5.93;;;;;;;11.82;85.06;100389.66;4981209;28;20121;-83
2022/10/31 07:46:53;;;;;;;9.93;5.80;;;;;;;11.78;84.92;100400.69;4977215;28;20047;-83
2022/10/31 07:49:20;;;;;;;16.45;5.22;;;;;;;11.73;85.53;100399.28;4971243;28;20550;-83
2022/10/31 07:52:07;;;;;;;11.95;5.97;;;;;;;11.79;85.65;100399.72;4983274;28;20046;-83
2022/10/31 07:54:59;;;;;;;8.77;5.22;;;;;;;11.75;86.53;100393.81;4930033;28;20057;-83
2022/10/31 07:57:26;;;;;;;7.93;5.18;;;;;;;11.80;86.46;100388.94;5003306;28;20145;-83
2022/10/31 07:59:59;;;;;;;7.60;5.00;;;;;;;11.81;86.34;100382.66;4914485;28;20043;-83
2022/10/31 08:02:27;;;;;;;14.93;5.82;;;;;;;11.88;85.95;100391.84;4948371;28;20039;-83
2022/10/31 08:05:17;;;;;;;7.90;5.03;;;;;;;11.93;86.05;100386.09;4926145;28;20133;-83
2022/10/31 08:08:10;;;;;;;8.05;5.00;;;;;;;11.94;86.49;100385.16;4928313;28;20371;-83
2022/10/31 08:10:38;;;;;;;7.40;5.72;;;;;;;12.03;86.39;100383.50;4984964;28;20434;-83
2022/10/31 08:13:07;;;;;;;8.57;5.20;;;;;;;11.99;86.50;100392.75;4986087;28;20595;-83
2022/10/31 08:15:39;;;;;;;8.43;5.00;;;;;;;11.95;86.44;100379.69;4970530;28;20085;-83
2022/10/31 08:18:16;;;;;;;9.38;5.57;;;;;;;11.91;86.08;100383.59;4963704;28;20050;-81
2022/10/31 08:20:43;;;;;;;5.95;4.53;;;;;;;12.05;85.86;100379.75;4957353;28;20108;-81
2022/10/31 08:23:11;;;;;;;7.07;4.35;;;;;;;12.01;86.24;100383.66;4971988;28;20393;-81
2022/10/31 08:25:38;;;;;;;7.90;4.82;;;;;;;12.09;85.87;100386.50;4967079;28;20589;-82
2022/10/31 08:28:06;;;;;;;7.47;5.10;;;;;;;12.18;85.78;100386.66;4985544;28;20489;-82
2022/10/31 08:30:35;;;;;;;8.30;5.10;;;;;;;12.13;85.97;100390.56;4971879;28;20089;-82
2022/10/31 08:33:31;;;;;;;9.07;4.97;;;;;;;12.13;86.29;100382.56;4871372;28;20047;-81
2022/10/31 08:36:16;;;;;;;6.95;4.78;;;;;;;12.13;86.73;100373.75;4983135;28;20105;-82
2022/10/31 08:38:51;;;;;;;8.50;5.10;;;;;;;12.17;86.12;100375.19;4935675;28;20097;-81
2022/10/31 08:41:26;;;;;;;8.18;4.80;;;;;;;12.21;86.04;100371.25;4967132;28;20042;-82
2022/10/31 08:43:55;;;;;;;11.60;4.88;;;;;;;12.27;85.37;100370.75;4937985;28;20140;-82
2022/10/31 08:46:22;;;;;;;10.18;5.28;;;;;;;12.25;85.26;100366.53;4951901;28;20051;-82
2022/10/31 08:48:49;;;;;;;13.77;5.10;;;;;;;12.28;85.33;100356.44;4950314;28;20043;-82
2022/10/31 08:51:17;;;;;;;12.35;4.93;;;;;;;12.32;85.17;100357.88;4959633;28;20134;-82
2022/10/31 08:53:44;;;;;;;12.85;5.20;;;;;;;12.35;84.80;100351.44;4951262;28;20482;-83
2022/10/31 08:56:29;;;;;;;13.40;5.00;;;;;;;12.40;84.90;100351.03;4945873;28;20402;-83
2022/10/31 08:58:56;;;;;;;11.40;5.65;;;;;;;12.45;85.06;100356.81;4963367;28;20495;-83
2022/10/31 09:01:35;;;;;;;8.95;5.35;;;;;;;12.46;84.89;100359.31;4933846;28;20050;-83
2022/10/31 09:04:04;;;;;;;9.15;5.82;;;;;;;12.53;84.77;100363.13;4948821;28;20113;-83
2022/10/31 09:06:31;;;;;;;11.73;5.65;;;;;;;12.56;85.04;100354.03;4956867;28;20046;-82
2022/10/31 09:08:59;;;;;;;12.15;5.93;;;;;;;12.63;84.86;100355.16;4956031;28;20058;-83
2022/10/31 09:11:25;;;;;;;13.27;5.97;;;;;;;12.68;85.00;100347.63;4953106;28;20515;-83
2022/10/31 09:14:18;;;;;;;13.13;5.93;;;;;;;12.67;85.42;100339.75;4976772;28;20137;-83
2022/10/31 09:17:24;;;;;;;9.10;5.18;;;;;;;12.71;85.66;100346.50;4892498;28;20447;-82
2022/10/31 09:20:27;;;;;;;13.45;6.28;;;;;;;12.77;85.40;100335.28;4890462;28;20537;-83
2022/10/31 09:23:01;;;;;;;12.90;6.00;;;;;;;12.74;85.63;100330.22;4975800;28;20046;-82
2022/10/31 09:25:30;;;;;;;13.60;6.40;;;;;;;12.78;85.49;100321.81;4973824;28;20056;-82
2022/10/31 09:28:29;;;;;;;16.92;6.00;;;;;;;12.81;85.60;100326.88;4929367;28;20057;-83
2022/10/31 09:31:00;;;;;;;12.80;6.03;;;;;;;12.87;85.73;100322.81;4942071;28;20069;-82
2022/10/31 09:33:47;;;;;;;9.45;5.60;;;;;;;12.96;85.88;100329.16;4966337;28;20120;-82
2022/10/31 09:36:38;;;;;;;11.48;5.85;;;;;;;13.01;85.74;100317.06;4994654;28;20054;-83
2022/10/31 09:39:11;;;;;;;10.70;5.90;;;;;;;13.05;85.76;100322.97;4994195;28;20812;-83
2022/10/31 09:41:49;;;;;;;10.98;5.70;;;;;;;13.03;86.18;100317.78;4993044;28;21122;-82
2022/10/31 09:44:32;;;;;;;10.98;5.40;;;;;;;13.11;85.85;100316.25;4995834;28;20398;-82
2022/10/31 09:47:22;;;;;;;10.98;5.80;;;;;;;13.14;86.71;100311.47;5003758;28;20046;-82
2022/10/31 09:50:13;;;;;;;10.07;5.95;;;;;;;13.24;86.26;100312.31;4972596;28;20054;-82
2022/10/31 09:52:57;;;;;;;10.48;5.97;;;;;;;13.29;86.35;100316.41;4983595;28;20051;-83
2022/10/31 09:55:40;;;;;;;10.57;5.72;;;;;;;13.36;86.43;100310.38;4935682;28;20054;-83
2022/10/31 09:58:26;;;;;;;13.32;6.03;;;;;;;13.40;86.45;100314.41;4982969;28;20054;-83
2022/10/31 10:00:57;;;;;;;10.85;6.03;;;;;;;13.51;86.47;100307.25;4966523;28;20450;-82
2022/10/31 10:03:28;;;;;;;8.20;5.60;;;;;;;13.54;86.65;100306.97;4952044;28;20038;-82
2022/10/31 10:06:22;;;;;;;8.93;5.30;;;;;;;13.51;87.19;100309.91;4985009;28;20047;-81
2022/10/31 10:09:09;;;;;;;8.88;5.20;;;;;;;13.62;86.74;100312.44;4962771;28;20054;-81
2022/10/31 10:12:07;;;;;;;9.50;5.95;;;;;;;13.65;87.18;100309.47;4951380;28;20058;-81
2022/10/31 10:15:02;;;;;;;11.65;5.97;;;;;;;13.66;87.83;100305.81;4972600;28;20046;-81
2022/10/31 10:18:00;;;;;;;10.85;5.10;;;;;;;13.69;87.99;100305.53;4939855;28;20058;-82
2022/10/31 10:20:43;;;;;;;9.23;5.40;;;;;;;13.78;87.58;100303.81;4923993;28;20051;-82
2022/10/31 10:23:21;;;;;;;8.38;5.68;;;;;;;13.74;88.39;100302.41;4957269;28;20074;-82
2022/10/31 10:25:54;;;;;;;10.73;6.03;;;;;;;13.82;88.40;100303.41;4976386;28;20046;-83
2022/10/31 10:28:23;;;;;;;11.90;6.47;;;;;;;13.84;88.52;100301.44;4991968;28;20145;-82
2022/10/31 10:30:53;;;;;;;16.75;6.75;;;;;;;13.86;88.37;100302.09;4989369;28;20050;-81
2022/10/31 10:33:32;;;;;;;13.65;7.03;;;;;;;13.84;89.12;100292.56;4952439;28;20050;-82
2022/10/31 10:36:01;;;;;;;11.35;7.03;;;;;;;13.90;89.04;100283.97;4956989;28;20057;-82
2022/10/31 10:38:42;;;;;;;10.20;6.63;;;;;;;13.90;89.23;100294.66;4987039;28;20133;-82
2022/10/31 10:41:17;;;;;;;12.25;7.43;;;;;;;13.95;89.37;100286.22;4985342;28;20125;-83
2022/10/31 10:43:44;;;;;;;12.07;8.50;;;;;;;14.00;89.49;100275.94;4950335;28;20121;-83
2022/10/31 10:49:11;;;;;;;13.85;7.75;;;;;;;14.01;90.44;100272.25;4958127;28;20508;-84
2022/10/31 10:51:43;;;;;;;12.43;7.72;;;;;;;14.07;90.31;100274.38;4950033;28;20593;-82
2022/10/31 10:54:47;;;;;;;17.27;7.28;;;;;;;14.02;90.90;100268.63;4932112;28;20051;-82
2022/10/31 10:57:22;;;;;;;12.60;7.28;;;;;;;14.09;90.62;100265.22;4967140;28;20069;-82
2022/10/31 10:59:49;;;;;;;10.13;7.40;;;;;;;14.13;90.37;100263.06;4986150;28;20532;-83
2022/10/31 11:02:18;;;;;;;15.70;7.47;;;;;;;14.15;90.59;100257.59;4988289;28;20048;-83
2022/10/31 11:04:50;;;;;;;13.43;7.65;;;;;;;14.15;90.76;100253.09;4984035;28;20101;-82
2022/10/31 11:07:17;;;;;;;12.15;7.50;;;;;;;14.18;91.22;100251.97;4988164;28;20074;-83
2022/10/31 11:09:44;;;;;;;10.77;7.18;;;;;;;14.20;91.29;100245.47;4952854;28;20042;-82
2022/10/31 11:12:19;;;;;;;13.23;8.65;;;;;;;14.19;92.16;100245.63;4946107;28;20069;-84
2022/10/31 11:14:52;;;;;;;13.73;7.75;;;;;;;14.19;92.51;100241.09;4960371;28;20094;-83
2022/10/31 11:17:26;;;;;;;14.07;8.85;;;;;;;14.21;92.09;100230.28;4942555;28;20126;-82
2022/10/31 11:20:11;;;;;;;16.65;9.82;;;;;;;14.23;94.01;100223.81;5004468;28;20050;-85
2022/10/31 11:22:46;;;;;;;14.98;9.10;;;;;;;14.33;92.81;100223.75;4970429;28;20050;-90
2022/10/31 11:25:26;;;;;;;15.00;9.10;;;;;;;14.28;92.49;100215.34;4933185;28;20050;-89
2022/10/31 11:28:04;;;;;;;14.63;9.60;;;;;;;14.30;92.65;100214.19;4966936;28;20050;-90
2022/10/31 11:30:37;;;;;;;14.05;8.63;;;;;;;14.34;92.34;100204.88;4974768;28;20058;-89
2022/10/31 11:33:04;;;;;;;12.93;8.15;;;;;;;14.37;92.48;100202.91;4950176;28;20054;-89
2022/10/31 11:35:30;;;;;;;12.63;8.55;;;;;;;14.38;93.01;100200.09;4969399;28;20410;-89
2022/10/31 11:37:58;;;;;;;12.38;8.48;;;;;;;14.39;92.99;100195.59;4963391;28;20568;-89
2022/10/31 11:40:26;;;;;;;22.23;9.45;;;;;;;14.41;93.32;100194.44;4978242;28;20122;-89
2022/10/31 11:42:55;;;;;;;14.15;9.13;;;;;;;14.42;93.29;100188.09;4968031;28;20076;-88
2022/10/31 11:45:22;;;;;;;16.40;9.15;;;;;;;14.43;93.94;100187.13;4956518;28;20097;-88
2022/10/31 11:47:50;;;;;;;11.27;8.10;;;;;;;14.44;93.33;100180.78;4988688;28;20053;-89
2022/10/31 11:50:38;;;;;;;21.05;9.77;;;;;;;14.38;95.58;100173.38;4945232;28;20113;-89